sensor_id;sensor_type;location;lat;lon;timestamp;pressure;altitude;pressure_sealevel;temperature;humidity
17505;BME280;8870;50.950;11.762;2022-12-24T00:02:40;97177.34;;;9.77;100.00
17505;BME280;8870;50.950;11.762;2022-12-24T00:08:01;97183.78;;;9.76;100.00
17505;BME280;8870;50.950;11.762;2022-12-24T00:13:32;97189.88;;;9.84;100.00
17505;BME280;8870;50.950;11.762;2022-12-24T00:18:50;97193.50;;;9.92;100.00
17505;BME280;8870;50.950;11.762;2022-12-24T00:24:24;97208.59;;;9.78;100.00
17505;BME280;8870;50.950;11.762;2022-12-24T00:29:42;97203.06;;;9.79;100.00
17505;BME280;8870;50.950;11.762;2022-12-24T00:35:13;97206.41;;;9.81;100.00
17505;BME280;8870;50.950;11.762;2022-12-24T00:40:34;97227.91;;;9.81;100.00
17505;BME280;8870;50.950;11.762;2022-12-24T00:46:05;97225.50;;;9.86;100.00
17505;BME280;8870;50.950;11.762;2022-12-24T00:51:36;97232.84;;;9.93;100.00
17505;BME280;8870;50.950;11.762;2022-12-24T00:56:57;97232.53;;;9.87;100.00
17505;BME280;8870;50.950;11.762;2022-12-24T01:02:28;97234.31;;;9.80;100.00
17505;BME280;8870;50.950;11.762;2022-12-24T01:07:46;97240.44;;;9.74;100.00
17505;BME280;8870;50.950;11.762;2022-12-24T01:13:20;97263.97;;;9.72;100.00
17505;BME280;8870;50.950;11.762;2022-12-24T01:18:38;97257.66;;;9.65;100.00
17505;BME280;8870;50.950;11.762;2022-12-24T01:24:13;97254.34;;;9.63;100.00
17505;BME280;8870;50.950;11.762;2022-12-24T01:29:34;97257.56;;;9.73;100.00
17505;BME280;8870;50.950;11.762;2022-12-24T01:35:06;97276.25;;;9.75;100.00
17505;BME280;8870;50.950;11.762;2022-12-24T01:40:25;97282.44;;;9.90;100.00
17505;BME280;8870;50.950;11.762;2022-12-24T01:46:15;97289.41;;;9.84;100.00
17505;BME280;8870;50.950;11.762;2022-12-24T01:51:52;97285.97;;;9.91;100.00
17505;BME280;8870;50.950;11.762;2022-12-24T01:57:15;97295.44;;;9.86;100.00
17505;BME280;8870;50.950;11.762;2022-12-24T02:02:51;97297.38;;;9.78;100.00
17505;BME280;8870;50.950;11.762;2022-12-24T02:08:11;97318.16;;;9.84;100.00
17505;BME280;8870;50.950;11.762;2022-12-24T02:13:43;97329.00;;;9.76;100.00
17505;BME280;8870;50.950;11.762;2022-12-24T02:19:16;97335.75;;;9.71;100.00
17505;BME280;8870;50.950;11.762;2022-12-24T02:25:10;97332.31;;;9.78;100.00
17505;BME280;8870;50.950;11.762;2022-12-24T02:30:41;97350.22;;;9.70;100.00
17505;BME280;8870;50.950;11.762;2022-12-24T02:36:19;97328.31;;;9.59;100.00
17505;BME280;8870;50.950;11.762;2022-12-24T02:41:44;97356.34;;;9.41;100.00
17505;BME280;8870;50.950;11.762;2022-12-24T02:47:34;97352.06;;;9.32;100.00
17505;BME280;8870;50.950;11.762;2022-12-24T02:52:53;97355.53;;;9.40;100.00
17505;BME280;8870;50.950;11.762;2022-12-24T02:58:32;97364.19;;;9.28;100.00
17505;BME280;8870;50.950;11.762;2022-12-24T03:04:09;97385.63;;;9.36;100.00
17505;BME280;8870;50.950;11.762;2022-12-24T03:10:13;97361.94;;;9.39;100.00
17505;BME280;8870;50.950;11.762;2022-12-24T03:15:37;97375.25;;;9.33;100.00
17505;BME280;8870;50.950;11.762;2022-12-24T03:21:15;97365.50;;;9.32;100.00
17505;BME280;8870;50.950;11.762;2022-12-24T03:26:35;97387.19;;;9.53;100.00
17505;BME280;8870;50.950;11.762;2022-12-24T03:32:07;97387.53;;;9.50;100.00
17505;BME280;8870;50.950;11.762;2022-12-24T03:37:28;97409.22;;;9.49;100.00
17505;BME280;8870;50.950;11.762;2022-12-24T03:42:59;97433.31;;;9.42;100.00
17505;BME280;8870;50.950;11.762;2022-12-24T03:48:17;97422.66;;;9.49;100.00
17505;BME280;8870;50.950;11.762;2022-12-24T03:53:51;97432.81;;;9.38;100.00
17505;BME280;8870;50.950;11.762;2022-12-24T03:59:09;97431.63;;;9.41;100.00
17505;BME280;8870;50.950;11.762;2022-12-24T04:04:40;97452.66;;;9.37;100.00
17505;BME280;8870;50.950;11.762;2022-12-24T04:10:01;97472.69;;;9.27;100.00
17505;BME280;8870;50.950;11.762;2022-12-24T04:15:33;97500.44;;;9.27;100.00
17505;BME280;8870;50.950;11.762;2022-12-24T04:20:51;97471.03;;;9.25;100.00
17505;BME280;8870;50.950;11.762;2022-12-24T04:26:25;97503.72;;;9.06;100.00
17505;BME280;8870;50.950;11.762;2022-12-24T04:31:43;97505.91;;;8.94;100.00
17505;BME280;8870;50.950;11.762;2022-12-24T04:37:14;97516.84;;;8.92;100.00
17505;BME280;8870;50.950;11.762;2022-12-24T04:42:42;97502.78;;;8.82;100.00
17505;BME280;8870;50.950;11.762;2022-12-24T04:48:13;97523.09;;;8.76;100.00
17505;BME280;8870;50.950;11.762;2022-12-24T04:53:33;97517.91;;;8.67;100.00
17505;BME280;8870;50.950;11.762;2022-12-24T04:59:08;97521.31;;;8.60;100.00
17505;BME280;8870;50.950;11.762;2022-12-24T05:04:26;97529.50;;;8.59;100.00
17505;BME280;8870;50.950;11.762;2022-12-24T05:09:57;97541.78;;;8.53;100.00
17505;BME280;8870;50.950;11.762;2022-12-24T05:15:18;97553.50;;;8.44;100.00
17505;BME280;8870;50.950;11.762;2022-12-24T05:20:50;97549.13;;;8.68;100.00
17505;BME280;8870;50.950;11.762;2022-12-24T05:26:13;97573.16;;;8.69;100.00
17505;BME280;8870;50.950;11.762;2022-12-24T05:31:50;97576.31;;;8.73;100.00
17505;BME280;8870;50.950;11.762;2022-12-24T05:37:09;97593.09;;;8.83;100.00
17505;BME280;8870;50.950;11.762;2022-12-24T05:42:39;97594.78;;;8.84;100.00
17505;BME280;8870;50.950;11.762;2022-12-24T05:48:00;97595.75;;;8.91;100.00
17505;BME280;8870;50.950;11.762;2022-12-24T05:53:31;97605.00;;;8.89;100.00
17505;BME280;8870;50.950;11.762;2022-12-24T05:58:56;97629.19;;;8.81;100.00
17505;BME280;8870;50.950;11.762;2022-12-24T06:04:30;97654.88;;;8.58;100.00
17505;BME280;8870;50.950;11.762;2022-12-24T06:09:48;97660.38;;;8.40;100.00
17505;BME280;8870;50.950;11.762;2022-12-24T06:15:19;97700.56;;;8.15;100.00
17505;BME280;8870;50.950;11.762;2022-12-24T06:20:40;97696.38;;;8.05;100.00
17505;BME280;8870;50.950;11.762;2022-12-24T06:26:13;97712.22;;;7.90;100.00
17505;BME280;8870;50.950;11.762;2022-12-24T06:31:31;97717.72;;;7.80;100.00
17505;BME280;8870;50.950;11.762;2022-12-24T06:37:05;97710.69;;;7.79;100.00
17505;BME280;8870;50.950;11.762;2022-12-24T06:42:31;97704.25;;;7.71;100.00
17505;BME280;8870;50.950;11.762;2022-12-24T06:48:04;97715.31;;;7.68;100.00
17505;BME280;8870;50.950;11.762;2022-12-24T06:53:25;97722.31;;;7.61;100.00
17505;BME280;8870;50.950;11.762;2022-12-24T06:58:56;97728.31;;;7.55;100.00
17505;BME280;8870;50.950;11.762;2022-12-24T07:04:14;97732.03;;;7.62;100.00
17505;BME280;8870;50.950;11.762;2022-12-24T07:09:48;97733.38;;;7.58;100.00
17505;BME280;8870;50.950;11.762;2022-12-24T07:15:07;97740.94;;;7.63;100.00
17505;BME280;8870;50.950;11.762;2022-12-24T07:20:38;97741.78;;;7.71;100.00
17505;BME280;8870;50.950;11.762;2022-12-24T07:26:04;97750.50;;;7.65;100.00
17505;BME280;8870;50.950;11.762;2022-12-24T07:31:35;97766.75;;;7.64;100.00
17505;BME280;8870;50.950;11.762;2022-12-24T07:36:53;97772.63;;;7.67;100.00
17505;BME280;8870;50.950;11.762;2022-12-24T07:42:27;97769.25;;;7.65;100.00
17505;BME280;8870;50.950;11.762;2022-12-24T07:47:45;97766.09;;;7.70;100.00
17505;BME280;8870;50.950;11.762;2022-12-24T07:53:17;97783.00;;;7.70;100.00
17505;BME280;8870;50.950;11.762;2022-12-24T07:58:37;97790.81;;;7.82;100.00
17505;BME280;8870;50.950;11.762;2022-12-24T16:19:50;98274.81;;;7.78;100.00
17505;BME280;8870;50.950;11.762;2022-12-24T16:25:23;98280.63;;;7.73;100.00
17505;BME280;8870;50.950;11.762;2022-12-24T16:30:44;98276.09;;;7.74;100.00
17505;BME280;8870;50.950;11.762;2022-12-24T16:36:19;98278.06;;;7.71;100.00
17505;BME280;8870;50.950;11.762;2022-12-24T16:41:38;98288.53;;;7.65;100.00
17505;BME280;8870;50.950;11.762;2022-12-24T16:47:25;98291.38;;;7.53;100.00
17505;BME280;8870;50.950;11.762;2022-12-24T16:52:53;98289.13;;;7.49;100.00
17505;BME280;8870;50.950;11.762;2022-12-24T16:58:32;98288.19;;;7.40;100.00
17505;BME280;8870;50.950;11.762;2022-12-24T17:03:50;98294.66;;;7.37;100.00
17505;BME280;8870;50.950;11.762;2022-12-24T17:09:24;98305.81;;;7.43;100.00
17505;BME280;8870;50.950;11.762;2022-12-24T17:14:43;98306.69;;;7.33;100.00
17505;BME280;8870;50.950;11.762;2022-12-24T17:20:15;98312.88;;;7.24;100.00
17505;BME280;8870;50.950;11.762;2022-12-24T17:25:37;98315.44;;;7.16;100.00
17505;BME280;8870;50.950;11.762;2022-12-24T17:31:12;98331.22;;;7.09;100.00
17505;BME280;8870;50.950;11.762;2022-12-24T17:36:32;98327.97;;;6.96;100.00
17505;BME280;8870;50.950;11.762;2022-12-24T17:42:06;98329.81;;;6.85;100.00
17505;BME280;8870;50.950;11.762;2022-12-24T17:47:27;98339.81;;;6.73;100.00
17505;BME280;8870;50.950;11.762;2022-12-24T17:53:00;98336.25;;;6.53;100.00
17505;BME280;8870;50.950;11.762;2022-12-24T17:58:20;98347.91;;;6.42;100.00
17505;BME280;8870;50.950;11.762;2022-12-24T18:03:52;98349.00;;;6.30;100.00
17505;BME280;8870;50.950;11.762;2022-12-24T18:09:23;98361.94;;;6.25;100.00
17505;BME280;8870;50.950;11.762;2022-12-24T18:14:43;98361.78;;;6.16;100.00
17505;BME280;8870;50.950;11.762;2022-12-24T18:20:15;98368.91;;;6.06;100.00
17505;BME280;8870;50.950;11.762;2022-12-24T18:25:47;98381.22;;;5.97;100.00
17505;BME280;8870;50.950;11.762;2022-12-24T18:31:10;98397.69;;;5.93;100.00
17505;BME280;8870;50.950;11.762;2022-12-24T18:36:42;98386.25;;;5.91;100.00
17505;BME280;8870;50.950;11.762;2022-12-24T18:42:12;98403.28;;;5.90;100.00
17505;BME280;8870;50.950;11.762;2022-12-24T18:47:48;98413.50;;;5.84;100.00
17505;BME280;8870;50.950;11.762;2022-12-24T18:53:11;98403.78;;;5.83;100.00
17505;BME280;8870;50.950;11.762;2022-12-24T18:58:44;98407.72;;;5.79;100.00
17505;BME280;8870;50.950;11.762;2022-12-24T19:04:05;98411.88;;;5.72;100.00
17505;BME280;8870;50.950;11.762;2022-12-24T19:09:40;98402.22;;;5.60;100.00
17505;BME280;8870;50.950;11.762;2022-12-24T19:15:07;98406.03;;;5.57;100.00
17505;BME280;8870;50.950;11.762;2022-12-24T19:20:47;98403.28;;;5.47;100.00
17505;BME280;8870;50.950;11.762;2022-12-24T19:26:08;98419.59;;;5.44;100.00
17505;BME280;8870;50.950;11.762;2022-12-24T19:31:40;98425.31;;;5.39;100.00
17505;BME280;8870;50.950;11.762;2022-12-24T19:37:03;98434.69;;;5.34;100.00
17505;BME280;8870;50.950;11.762;2022-12-24T19:42:35;98443.91;;;5.30;100.00
17505;BME280;8870;50.950;11.762;2022-12-24T19:47:54;98444.69;;;5.20;100.00
17505;BME280;8870;50.950;11.762;2022-12-24T19:58:56;98467.41;;;5.15;100.00
17505;BME280;8870;50.950;11.762;2022-12-24T20:04:28;98492.53;;;5.12;100.00
17505;BME280;8870;50.950;11.762;2022-12-24T20:09:48;98496.88;;;5.13;100.00
17505;BME280;8870;50.950;11.762;2022-12-24T20:15:23;98506.00;;;5.11;100.00
17505;BME280;8870;50.950;11.762;2022-12-24T20:20:46;98518.63;;;5.08;100.00
17505;BME280;8870;50.950;11.762;2022-12-24T20:26:22;98524.09;;;5.07;100.00
17505;BME280;8870;50.950;11.762;2022-12-24T21:36:42;98573.75;;;4.98;100.00
17505;BME280;8870;50.950;11.762;2022-12-24T21:42:14;98574.63;;;4.99;100.00
17505;BME280;8870;50.950;11.762;2022-12-24T21:47:33;98579.69;;;5.02;100.00
17505;BME280;8870;50.950;11.762;2022-12-24T21:53:07;98569.97;;;5.01;100.00
17505;BME280;8870;50.950;11.762;2022-12-24T21:58:39;98614.31;;;5.03;100.00
17505;BME280;8870;50.950;11.762;2022-12-24T22:04:11;98611.50;;;5.05;100.00
17505;BME280;8870;50.950;11.762;2022-12-24T22:09:31;98608.97;;;5.03;100.00
17505;BME280;8870;50.950;11.762;2022-12-24T22:15:16;98605.19;;;5.06;100.00
17505;BME280;8870;50.950;11.762;2022-12-24T22:26:31;98630.06;;;5.06;100.00
17505;BME280;8870;50.950;11.762;2022-12-24T22:32:02;98628.25;;;5.07;100.00
17505;BME280;8870;50.950;11.762;2022-12-24T22:37:20;98629.00;;;5.09;100.00
17505;BME280;8870;50.950;11.762;2022-12-24T22:42:53;98623.53;;;5.11;100.00
17505;BME280;8870;50.950;11.762;2022-12-24T22:48:12;98639.66;;;5.09;100.00
17505;BME280;8870;50.950;11.762;2022-12-24T22:53:43;98644.75;;;5.12;100.00
17505;BME280;8870;50.950;11.762;2022-12-24T23:04:57;98650.81;;;5.14;100.00
17505;BME280;8870;50.950;11.762;2022-12-24T23:10:30;98649.13;;;5.13;100.00
17505;BME280;8870;50.950;11.762;2022-12-24T23:15:49;98660.78;;;5.12;100.00
17505;BME280;8870;50.950;11.762;2022-12-24T23:21:24;98646.72;;;5.10;100.00
17505;BME280;8870;50.950;11.762;2022-12-24T23:26:43;98646.44;;;5.13;100.00
17505;BME280;8870;50.950;11.762;2022-12-24T23:32:14;98637.38;;;5.16;100.00
17505;BME280;8870;50.950;11.762;2022-12-24T23:37:41;98628.25;;;5.18;100.00
17505;BME280;8870;50.950;11.762;2022-12-24T23:43:13;98617.44;;;5.20;100.00
17505;BME280;8870;50.950;11.762;2022-12-24T23:48:33;98620.09;;;5.20;100.00
17505;BME280;8870;50.950;11.762;2022-12-24T23:54:06;98611.13;;;5.21;100.00
17505;BME280;8870;50.950;11.762;2022-12-24T23:59:25;98616.38;;;5.22;100.00
